createdAt,value
2022-10-22T00:00:16.373Z,2.15
2022-10-22T00:02:43.899Z,2.08
2022-10-22T00:05:10.851Z,2.00
2022-10-22T00:07:37.590Z,2.05
2022-10-22T00:10:06.445Z,2.00
2022-10-22T00:12:32.998Z,2.53
2022-10-22T00:14:59.480Z,2.47
2022-10-22T00:17:25.875Z,2.13
2022-10-22T00:19:52.302Z,2.40
2022-10-22T00:22:18.750Z,1.80
2022-10-22T00:24:45.165Z,2.17
2022-10-22T00:27:12.872Z,2.05
2022-10-22T00:29:39.272Z,2.30
2022-10-22T00:32:07.058Z,2.15
2022-10-22T00:34:33.913Z,2.90
2022-10-22T00:37:00.339Z,2.30
2022-10-22T00:39:27.763Z,2.97
2022-10-22T00:41:56.367Z,2.33
2022-10-22T00:45:00.429Z,2.25
2022-10-22T00:47:31.487Z,2.00
2022-10-22T00:50:00.091Z,2.92
2022-10-22T00:52:27.343Z,2.53
2022-10-22T00:54:54.033Z,3.50
2022-10-22T00:57:21.027Z,2.45
2022-10-22T00:59:48.235Z,2.60
2022-10-22T01:02:15.525Z,2.05
2022-10-22T01:04:42.074Z,2.05
2022-10-22T01:07:17.007Z,1.80
2022-10-22T01:10:08.682Z,2.05
2022-10-22T01:12:49.232Z,3.45
2022-10-22T01:15:28.818Z,2.30
2022-10-22T01:18:05.133Z,2.20
2022-10-22T01:20:56.989Z,1.90
2022-10-22T01:23:41.547Z,1.98
2022-10-22T01:26:42.012Z,2.05
2022-10-22T01:29:47.230Z,1.92
2022-10-22T01:32:23.959Z,2.22
2022-10-22T01:34:56.151Z,1.43
2022-10-22T01:37:26.736Z,2.05
2022-10-22T01:39:54.207Z,1.70
2022-10-22T01:42:21.223Z,2.10
2022-10-22T01:44:50.036Z,1.88
2022-10-22T01:47:44.225Z,1.37
2022-10-22T01:50:13.460Z,1.80
2022-10-22T01:53:07.702Z,1.60
2022-10-22T01:55:46.223Z,1.77
2022-10-22T01:58:58.246Z,2.10
2022-10-22T02:01:46.622Z,2.03
2022-10-22T02:04:35.465Z,2.45
2022-10-22T02:07:06.247Z,1.83
2022-10-22T02:09:34.447Z,1.88
2022-10-22T02:14:32.284Z,1.90
2022-10-22T02:17:01.336Z,2.20
2022-10-22T02:19:40.099Z,1.75
2022-10-22T02:22:07.414Z,2.25
2022-10-22T02:24:34.245Z,2.03
2022-10-22T02:27:22.798Z,1.63
2022-10-22T02:30:01.603Z,2.10
2022-10-22T02:32:37.116Z,2.22
2022-10-22T02:35:05.008Z,2.80
2022-10-22T02:37:32.389Z,1.83
2022-10-22T02:39:58.823Z,1.70
2022-10-22T02:42:26.362Z,1.65
2022-10-22T02:44:52.803Z,2.10
2022-10-22T02:47:19.796Z,2.00
2022-10-22T02:49:46.137Z,2.10
2022-10-22T02:52:13.029Z,2.10
2022-10-22T02:54:39.420Z,1.65
2022-10-22T02:57:06.001Z,1.63
2022-10-22T02:59:32.430Z,1.73
2022-10-22T03:01:58.849Z,2.10
2022-10-22T03:04:25.301Z,1.80
2022-10-22T03:06:51.820Z,1.90
2022-10-22T03:09:21.329Z,2.10
2022-10-22T03:11:50.615Z,1.50
2022-10-22T03:14:17.162Z,1.63
2022-10-22T03:16:43.608Z,2.20
2022-10-22T03:19:10.200Z,2.17
2022-10-22T03:22:05.180Z,2.00
2022-10-22T03:24:39.605Z,1.85
2022-10-22T03:27:06.005Z,1.27
2022-10-22T03:29:36.036Z,1.60
2022-10-22T03:32:02.476Z,1.40
2022-10-22T03:34:28.935Z,1.73
2022-10-22T03:36:59.363Z,1.75
2022-10-22T03:39:27.209Z,1.85
2022-10-22T03:41:54.043Z,1.97
2022-10-22T03:44:20.995Z,1.67
2022-10-22T03:46:47.398Z,1.60
2022-10-22T03:49:14.001Z,1.90
2022-10-22T03:51:40.529Z,1.85
2022-10-22T03:54:07.069Z,1.97
2022-10-22T03:56:33.722Z,2.38
2022-10-22T03:59:01.228Z,3.22
2022-10-22T04:01:30.176Z,2.33
2022-10-22T04:03:57.538Z,2.03
2022-10-22T04:06:24.669Z,1.67
2022-10-22T04:08:51.334Z,2.10
2022-10-22T04:11:17.985Z,1.80
2022-10-22T04:13:45.678Z,2.40
2022-10-22T04:16:18.162Z,2.78
2022-10-22T04:18:46.665Z,2.20
2022-10-22T04:21:16.005Z,1.80
2022-10-22T04:23:47.502Z,2.10
2022-10-22T04:26:14.792Z,2.08
2022-10-22T04:28:41.697Z,2.67
2022-10-22T04:31:13.857Z,2.90
2022-10-22T04:33:41.219Z,3.08
2022-10-22T04:36:18.788Z,2.30
2022-10-22T04:38:46.674Z,2.33
2022-10-22T04:41:19.051Z,2.60
2022-10-22T04:43:46.346Z,2.30
2022-10-22T04:46:14.289Z,2.13
2022-10-22T04:48:42.270Z,2.67
2022-10-22T04:51:11.932Z,2.35
2022-10-22T04:53:40.380Z,2.20
2022-10-22T04:56:08.696Z,2.43
2022-10-22T04:58:35.121Z,2.17
2022-10-22T05:01:08.534Z,1.92
2022-10-22T05:03:34.985Z,2.30
2022-10-22T05:06:02.651Z,2.40
2022-10-22T05:08:29.083Z,2.10
2022-10-22T05:10:55.538Z,2.33
2022-10-22T05:13:21.976Z,3.83
2022-10-22T05:15:48.369Z,2.10
2022-10-22T05:18:16.814Z,1.63
2022-10-22T05:20:46.733Z,2.07
2022-10-22T05:23:13.174Z,2.25
2022-10-22T05:25:39.643Z,2.58
2022-10-22T05:28:06.237Z,1.80
2022-10-22T05:30:32.609Z,1.92
2022-10-22T05:32:59.052Z,2.67
2022-10-22T05:35:25.573Z,2.10
2022-10-22T05:37:51.970Z,2.22
2022-10-22T05:40:30.165Z,3.10
2022-10-22T05:42:58.568Z,1.80
2022-10-22T05:45:24.926Z,1.97
2022-10-22T05:47:51.380Z,1.85
2022-10-22T05:50:17.806Z,1.77
2022-10-22T05:52:44.236Z,1.92
2022-10-22T05:55:10.684Z,2.28
2022-10-22T05:57:37.115Z,1.90
2022-10-22T06:00:04.188Z,2.17
2022-10-22T06:02:30.616Z,2.00
2022-10-22T06:04:57.006Z,1.75
2022-10-22T06:07:23.534Z,1.48
2022-10-22T06:09:50.299Z,1.93
2022-10-22T06:12:16.752Z,1.92
2022-10-22T06:14:43.157Z,1.52
2022-10-22T06:17:09.873Z,2.42
2022-10-22T06:19:36.421Z,1.90
2022-10-22T06:22:04.343Z,1.60
2022-10-22T06:24:31.068Z,3.58
2022-10-22T06:26:57.431Z,1.90
2022-10-22T06:29:23.815Z,2.25
2022-10-22T06:31:50.206Z,1.85
2022-10-22T06:34:20.464Z,1.67
2022-10-22T06:36:47.326Z,1.75
2022-10-22T06:39:16.050Z,2.00
2022-10-22T06:41:42.447Z,2.13
2022-10-22T06:44:16.712Z,1.20
2022-10-22T06:46:43.627Z,1.97
2022-10-22T06:49:14.139Z,2.00
2022-10-22T06:51:40.801Z,1.30
2022-10-22T06:54:07.451Z,1.30
2022-10-22T06:56:33.853Z,1.63
2022-10-22T06:59:00.254Z,1.33
2022-10-22T07:01:29.648Z,1.50
2022-10-22T07:03:56.458Z,1.63
2022-10-22T07:06:24.244Z,1.70
2022-10-22T07:08:52.007Z,1.48
2022-10-22T07:11:22.809Z,1.33
2022-10-22T07:13:49.698Z,3.72
2022-10-22T07:16:18.021Z,5.82
2022-10-22T07:18:45.417Z,2.78
2022-10-22T07:21:13.001Z,2.38
2022-10-22T07:23:39.355Z,1.60
2022-10-22T07:26:09.871Z,1.35
2022-10-22T07:28:39.725Z,1.17
2022-10-22T07:31:07.617Z,0.82
2022-10-22T07:33:34.096Z,1.70
2022-10-22T07:36:04.199Z,0.83
2022-10-22T07:38:31.544Z,1.00
2022-10-22T07:40:58.576Z,1.10
2022-10-22T07:43:25.249Z,0.98
2022-10-22T07:45:51.690Z,0.90
2022-10-22T07:48:18.516Z,0.93
2022-10-22T07:53:11.251Z,1.10
2022-10-22T07:55:37.887Z,0.85
2022-10-22T07:58:04.308Z,0.73
2022-10-22T08:00:30.697Z,0.60
2022-10-22T08:02:57.054Z,0.80
2022-10-22T08:05:23.583Z,1.38
2022-10-22T08:07:49.937Z,0.90
2022-10-22T08:10:16.297Z,0.90
2022-10-22T08:12:42.982Z,0.80
2022-10-22T08:15:10.071Z,2.30
2022-10-22T08:17:37.203Z,0.90
2022-10-22T08:20:04.210Z,1.40
2022-10-22T08:22:30.636Z,0.90
2022-10-22T08:24:57.048Z,0.73
2022-10-22T08:27:23.420Z,0.98
2022-10-22T08:29:49.838Z,2.28
2022-10-22T08:32:17.266Z,0.80
2022-10-22T08:34:43.631Z,1.52
2022-10-22T08:37:14.135Z,1.13
2022-10-22T08:39:41.392Z,0.63
2022-10-22T08:42:34.265Z,0.80
2022-10-22T08:45:24.476Z,0.80
2022-10-22T08:48:14.470Z,0.65
2022-10-22T08:50:48.757Z,1.03
2022-10-22T08:53:22.299Z,0.80
2022-10-22T08:55:52.438Z,0.73
2022-10-22T08:58:36.833Z,0.60
2022-10-22T09:01:11.008Z,0.70
2022-10-22T09:03:40.386Z,0.60
2022-10-22T09:06:18.660Z,0.73
2022-10-22T09:08:46.711Z,1.02
2022-10-22T09:11:13.082Z,0.88
2022-10-22T09:13:45.215Z,0.57
2022-10-22T09:16:22.242Z,0.53
2022-10-22T09:18:56.690Z,0.95
2022-10-22T09:21:32.989Z,0.88
2022-10-22T09:24:00.076Z,0.50
2022-10-22T09:26:26.713Z,1.08
2022-10-22T09:28:53.351Z,0.70
2022-10-22T09:31:19.798Z,0.68
2022-10-22T09:33:51.903Z,0.55
2022-10-22T09:36:22.435Z,0.55
2022-10-22T09:38:53.174Z,0.80
2022-10-22T09:41:23.071Z,0.70
2022-10-22T09:43:50.015Z,0.95
2022-10-22T09:46:24.328Z,0.85
2022-10-22T09:49:12.065Z,0.88
2022-10-22T09:51:46.591Z,0.80
2022-10-22T09:54:29.278Z,1.20
2022-10-22T09:56:58.734Z,0.57
2022-10-22T09:59:31.700Z,0.55
2022-10-22T10:02:19.949Z,0.57
2022-10-22T10:04:52.334Z,0.93
2022-10-22T10:07:27.692Z,0.90
2022-10-22T10:09:54.376Z,0.82
2022-10-22T10:15:27.805Z,0.57
2022-10-22T10:18:06.202Z,0.40
2022-10-22T10:20:53.994Z,0.53
2022-10-22T10:23:36.227Z,0.65
2022-10-22T10:26:26.776Z,0.80
2022-10-22T10:29:24.957Z,0.63
2022-10-22T10:32:23.558Z,0.68
2022-10-22T10:35:05.499Z,0.70
2022-10-22T10:37:43.686Z,1.02
2022-10-22T10:40:33.135Z,0.50
2022-10-22T10:43:09.946Z,0.50
2022-10-22T10:45:42.304Z,0.60
2022-10-22T10:48:35.872Z,0.67
2022-10-22T10:51:14.202Z,0.93
2022-10-22T10:54:18.158Z,0.57
2022-10-22T10:56:53.075Z,0.80
2022-10-22T10:59:28.358Z,0.90
2022-10-22T11:02:16.010Z,0.87
2022-10-22T11:04:45.397Z,0.73
2022-10-22T11:07:30.436Z,0.82
2022-10-22T11:10:20.321Z,0.25
2022-10-22T11:12:54.382Z,0.47
2022-10-22T11:15:35.629Z,1.03
2022-10-22T11:18:29.026Z,0.57
2022-10-22T11:21:06.772Z,0.45
2022-10-22T11:23:40.932Z,0.40
2022-10-22T11:26:15.446Z,1.15
2022-10-22T11:28:47.727Z,1.17
2022-10-22T11:31:16.141Z,0.45
2022-10-22T11:34:04.834Z,0.50
2022-10-22T11:36:37.658Z,0.40
2022-10-22T11:39:05.081Z,0.65
2022-10-22T11:41:34.337Z,1.10
2022-10-22T11:44:20.820Z,1.95
2022-10-22T11:46:56.047Z,0.52
2022-10-22T11:49:28.348Z,0.30
2022-10-22T11:52:39.108Z,1.00
2022-10-22T11:55:48.710Z,0.97
2022-10-22T11:58:33.894Z,1.15
2022-10-22T12:01:09.326Z,0.50
2022-10-22T12:03:40.824Z,0.50
2022-10-22T12:06:14.927Z,0.47
2022-10-22T12:08:51.274Z,0.90
2022-10-22T12:11:49.606Z,1.63
2022-10-22T12:14:51.032Z,0.55
2022-10-22T12:17:19.309Z,0.80
2022-10-22T12:19:50.118Z,1.40
2022-10-22T12:22:21.966Z,0.60
2022-10-22T12:24:51.766Z,1.10
2022-10-22T12:27:26.555Z,0.90
2022-10-22T12:29:58.633Z,0.50
2022-10-22T12:32:42.778Z,1.35
2022-10-22T12:35:16.828Z,0.37
2022-10-22T12:37:43.723Z,0.60
2022-10-22T12:40:31.598Z,0.63
2022-10-22T12:43:01.431Z,0.70
2022-10-22T12:45:34.115Z,0.50
2022-10-22T12:48:07.583Z,1.57
2022-10-22T12:50:40.047Z,1.25
2022-10-22T12:53:31.746Z,0.57
2022-10-22T12:56:02.683Z,0.85
2022-10-22T12:58:41.437Z,0.47
2022-10-22T13:01:15.100Z,2.07
2022-10-22T13:03:49.822Z,0.60
2022-10-22T13:06:19.222Z,2.65
2022-10-22T13:08:56.036Z,0.50
2022-10-22T13:11:22.444Z,0.73
2022-10-22T13:13:48.774Z,0.90
2022-10-22T13:16:26.212Z,0.68
2022-10-22T13:18:53.964Z,0.70
2022-10-22T13:21:37.492Z,1.17
2022-10-22T13:24:19.736Z,0.98
2022-10-22T13:26:50.039Z,1.00
2022-10-22T13:29:20.181Z,0.90
2022-10-22T13:31:50.202Z,0.85
2022-10-22T13:34:22.316Z,0.75
2022-10-22T13:36:50.010Z,1.02
2022-10-22T13:39:19.207Z,1.00
2022-10-22T13:41:45.966Z,1.15
2022-10-22T13:44:12.347Z,0.82
2022-10-22T13:46:42.570Z,1.00
2022-10-22T13:49:20.716Z,0.82
2022-10-22T13:51:47.558Z,1.00
2022-10-22T13:54:17.575Z,0.75
2022-10-22T13:56:43.931Z,1.20
2022-10-22T13:59:10.662Z,0.95
2022-10-22T14:01:38.258Z,1.13
2022-10-22T14:04:06.793Z,0.93
2022-10-22T14:06:34.138Z,1.85
2022-10-22T14:09:04.389Z,1.50
2022-10-22T14:11:32.563Z,0.70
2022-10-22T14:13:59.201Z,0.98
2022-10-22T14:16:28.001Z,1.43
2022-10-22T14:18:55.845Z,0.70
2022-10-22T14:21:22.543Z,1.45
2022-10-22T14:23:51.055Z,0.93
2022-10-22T14:26:28.178Z,1.35
2022-10-22T14:29:11.384Z,1.83
2022-10-22T14:31:44.069Z,0.88
2022-10-22T14:34:13.643Z,1.35
2022-10-22T14:36:40.248Z,1.10
2022-10-22T14:39:06.821Z,1.35
2022-10-22T14:41:33.656Z,1.13
2022-10-22T14:44:00.116Z,0.93
2022-10-22T14:46:26.616Z,2.45
2022-10-22T14:48:53.049Z,1.02
2022-10-22T14:51:23.143Z,0.73
2022-10-22T14:53:49.810Z,2.00
2022-10-22T14:56:21.095Z,0.40
2022-10-22T14:58:47.691Z,1.02
2022-10-22T15:01:14.098Z,0.55
2022-10-22T15:03:40.504Z,0.70
2022-10-22T15:06:08.168Z,1.93
2022-10-22T15:08:34.644Z,0.90
2022-10-22T15:11:07.027Z,0.90
2022-10-22T15:13:33.911Z,1.70
2022-10-22T15:16:01.038Z,0.90
2022-10-22T15:18:28.382Z,0.97
2022-10-22T15:21:07.550Z,0.63
2022-10-22T15:23:33.958Z,1.02
2022-10-22T15:26:00.336Z,1.20
2022-10-22T15:28:26.668Z,1.13
2022-10-22T15:30:57.654Z,0.77
2022-10-22T15:33:24.851Z,1.35
2022-10-22T15:35:52.199Z,0.95
2022-10-22T15:38:18.859Z,0.43
2022-10-22T15:40:45.600Z,1.13
2022-10-22T15:43:12.979Z,0.80
2022-10-22T15:45:39.662Z,1.30
2022-10-22T15:48:06.427Z,0.73
2022-10-22T15:50:37.884Z,0.60
2022-10-22T15:53:05.336Z,1.48
2022-10-22T15:55:31.766Z,0.70
2022-10-22T15:58:00.629Z,0.70
2022-10-22T16:00:30.029Z,0.70
2022-10-22T16:02:56.401Z,0.65
2022-10-22T16:05:22.774Z,1.05
2022-10-22T16:07:49.754Z,0.93
2022-10-22T16:10:16.120Z,0.80
2022-10-22T16:12:43.410Z,2.88
2022-10-22T16:15:10.564Z,1.55
2022-10-22T16:17:36.992Z,2.13
2022-10-22T16:20:03.726Z,1.57
2022-10-22T16:22:30.146Z,2.50
2022-10-22T16:24:56.606Z,1.73
2022-10-22T16:27:22.971Z,2.78
2022-10-22T16:29:49.373Z,1.98
2022-10-22T16:32:16.743Z,2.20
2022-10-22T16:34:43.351Z,1.10
2022-10-22T16:37:12.588Z,1.27
2022-10-22T16:39:38.962Z,1.35
2022-10-22T16:42:05.852Z,1.13
2022-10-22T16:44:32.271Z,1.30
2022-10-22T16:46:58.772Z,1.10
2022-10-22T16:49:25.167Z,0.93
2022-10-22T16:51:51.528Z,0.50
2022-10-22T16:54:17.953Z,1.35
2022-10-22T16:56:44.361Z,1.30
2022-10-22T16:59:10.733Z,2.50
2022-10-22T17:01:40.870Z,0.88
2022-10-22T17:04:08.372Z,0.95
2022-10-22T17:06:34.728Z,1.00
2022-10-22T17:09:01.189Z,0.73
2022-10-22T17:11:30.086Z,0.60
2022-10-22T17:13:56.626Z,0.70
2022-10-22T17:16:24.803Z,0.77
2022-10-22T17:18:52.838Z,0.90
2022-10-22T17:21:20.337Z,2.83
2022-10-22T17:23:47.248Z,3.58
2022-10-22T17:26:17.387Z,2.75
2022-10-22T17:28:44.076Z,3.15
2022-10-22T17:31:19.708Z,2.10
2022-10-22T17:33:46.968Z,1.87
2022-10-22T17:36:14.207Z,2.40
2022-10-22T17:38:42.271Z,2.25
2022-10-22T17:41:14.556Z,4.00
2022-10-22T17:43:41.504Z,6.32
2022-10-22T17:46:13.407Z,6.83
2022-10-22T17:48:40.134Z,5.00
2022-10-22T17:51:11.574Z,24.13
2022-10-22T17:53:42.903Z,18.88
2022-10-22T17:56:10.400Z,11.88
2022-10-22T17:58:37.278Z,4.17
2022-10-22T18:01:04.820Z,3.92
2022-10-22T18:03:32.095Z,2.47
2022-10-22T18:06:06.813Z,15.60
2022-10-22T18:08:33.370Z,16.63
2022-10-22T18:11:00.196Z,11.77
2022-10-22T18:13:26.688Z,7.05
2022-10-22T18:15:56.652Z,4.75
2022-10-22T18:18:24.108Z,3.88
2022-10-22T18:20:51.702Z,4.05
2022-10-22T18:23:19.333Z,3.23
2022-10-22T18:25:48.241Z,3.83
2022-10-22T18:28:16.399Z,3.95
2022-10-22T18:30:43.876Z,4.03
2022-10-22T18:33:12.535Z,4.07
2022-10-22T18:35:41.125Z,4.00
2022-10-22T18:38:10.739Z,4.20
2022-10-22T18:40:44.439Z,3.72
2022-10-22T18:43:10.911Z,4.75
2022-10-22T18:45:41.861Z,4.20
2022-10-22T18:48:08.304Z,7.57
2022-10-22T18:50:34.658Z,6.57
2022-10-22T18:53:01.026Z,6.03
2022-10-22T18:55:27.598Z,4.10
2022-10-22T18:57:53.931Z,4.22
2022-10-22T19:00:20.345Z,3.07
2022-10-22T19:02:46.692Z,5.47
2022-10-22T19:05:13.028Z,5.63
2022-10-22T19:07:40.931Z,4.60
2022-10-22T19:10:08.340Z,11.65
2022-10-22T20:41:40.569Z,5.15
2022-10-22T20:44:11.309Z,4.80
2022-10-22T20:46:37.686Z,4.32
2022-10-22T20:49:09.936Z,5.32
2022-10-22T20:51:37.152Z,7.88
2022-10-22T20:54:04.624Z,6.13
2022-10-22T20:56:31.773Z,5.90
2022-10-22T20:59:05.593Z,5.10
2022-10-22T21:01:52.256Z,5.43
2022-10-22T21:04:20.634Z,5.15
2022-10-22T21:06:50.361Z,5.55
2022-10-22T21:09:16.865Z,5.23
2022-10-22T21:11:43.808Z,8.07
2022-10-22T21:14:12.090Z,7.25
2022-10-22T21:16:45.879Z,7.15
2022-10-22T21:19:12.621Z,5.25
2022-10-22T21:21:39.012Z,5.30
2022-10-22T21:24:05.648Z,5.25
2022-10-22T21:26:32.123Z,4.40
2022-10-22T21:28:58.525Z,4.50
2022-10-22T21:31:26.292Z,5.40
2022-10-22T21:33:54.317Z,4.97
2022-10-22T21:36:23.282Z,4.70
2022-10-22T21:38:51.801Z,4.20
2022-10-22T21:41:20.421Z,4.60
2022-10-22T21:43:47.003Z,4.88
2022-10-22T21:46:18.504Z,4.30
2022-10-22T21:48:45.796Z,5.25
2022-10-22T21:51:19.404Z,4.60
2022-10-22T21:53:46.344Z,4.18
2022-10-22T21:56:22.432Z,4.13
2022-10-22T21:58:49.145Z,4.50
2022-10-22T22:01:16.541Z,5.78
2022-10-22T22:03:45.600Z,5.32
2022-10-22T22:06:13.359Z,5.53
2022-10-22T22:08:41.126Z,5.50
2022-10-22T22:11:10.736Z,4.60
2022-10-22T22:13:37.773Z,6.00
2022-10-22T22:16:09.719Z,4.90
2022-10-22T22:18:37.070Z,4.25
2022-10-22T22:21:09.309Z,4.32
2022-10-22T22:23:37.503Z,5.17
2022-10-22T22:26:05.298Z,4.57
2022-10-22T22:28:32.509Z,4.38
2022-10-22T22:30:59.762Z,4.18
2022-10-22T22:33:27.107Z,4.43
2022-10-22T22:35:58.696Z,4.20
2022-10-22T22:38:25.142Z,3.85
2022-10-22T22:40:51.631Z,5.03
2022-10-22T22:43:18.104Z,4.03
2022-10-22T22:45:44.507Z,5.40
2022-10-22T22:48:11.026Z,4.47
2022-10-22T22:50:37.485Z,4.20
2022-10-22T22:53:03.976Z,4.50
2022-10-22T22:55:31.977Z,5.25
2022-10-22T22:57:58.808Z,4.25
2022-10-22T23:00:25.325Z,4.67
2022-10-22T23:02:55.785Z,5.13
2022-10-22T23:05:22.423Z,4.68
2022-10-22T23:07:49.737Z,4.40
2022-10-22T23:10:16.263Z,4.60
2022-10-22T23:12:43.939Z,4.50
2022-10-22T23:15:11.258Z,5.13
2022-10-22T23:17:38.442Z,4.40
2022-10-22T23:20:05.661Z,4.40
2022-10-22T23:22:32.076Z,4.53
2022-10-22T23:24:58.636Z,5.10
2022-10-22T23:27:25.033Z,5.43
2022-10-22T23:29:51.510Z,5.15
2022-10-22T23:32:17.920Z,5.18
2022-10-22T23:34:45.329Z,5.03
2022-10-22T23:37:12.158Z,5.00
2022-10-22T23:39:38.734Z,4.90
2022-10-22T23:42:05.305Z,4.95
2022-10-22T23:44:31.745Z,5.43
2022-10-22T23:46:58.265Z,4.85
2022-10-22T23:49:25.754Z,5.97
2022-10-22T23:51:52.127Z,5.00
2022-10-22T23:54:18.964Z,4.80
2022-10-22T23:56:45.933Z,4.60
